New Life — DB5226 — position and weather

sailwx.info

Track history (hours):
 
Tides and Currents Weather Stations Pressure Air Temp Water Temp Dewpoint Dewpoint Depression Visibility Wind Speed Wind Dir Waves Ship Positions

New Life

Last reported at 2018-Jun-11 08:32 UTC. Time now 2018-Aug-21 01:55 UTC.
Position N 41°12' W 008°45'.
Warning: this ship's position is months out of date.

Length 14 m.

Type: Sailing vessel. MMSI: 211560270.

Date/timePositionNaut miles runAvg speedWind from/ knotsBaromVisibWave heightAir tempDewpointWater temp
2018-Jun-11 08:32N 41°12' W 008°45'0 6.3
2018-Jun-11 08:28N 41°11' W 008°45'2 4.2
2018-Jun-11 08:00N 41°11' W 008°42'0 0.9
2018-Jun-11 07:28N 41°11' W 008°42'0 0.0
2018-Jun-11 06:22N 41°11' W 008°42'0 0.0
2018-Jun-11 05:58N 41°11' W 008°42'0 0.0
2018-Jun-11 05:28N 41°11' W 008°42'0 0.0
2018-Jun-11 04:55N 41°11' W 008°42'0 0.0
2018-Jun-11 04:28N 41°11' W 008°42'0 0.0
2018-Jun-11 03:58N 41°11' W 008°42'0 0.0
2018-Jun-11 03:22N 41°11' W 008°42'0 0.0
2018-Jun-11 02:52N 41°11' W 008°42'0 0.0
2018-Jun-11 02:25N 41°11' W 008°42'0 0.0
2018-Jun-11 01:58N 41°11' W 008°42'0 0.0
2018-Jun-11 01:28N 41°11' W 008°42'0 0.0
2018-Jun-11 00:52N 41°11' W 008°42'0 0.0
2018-Jun-11 00:04N 41°11' W 008°42'0 0.0
2018-Jun-10 23:52N 41°11' W 008°42'0 0.0
2018-Jun-10 23:28N 41°11' W 008°42'0 0.0
2018-Jun-10 22:58N 41°11' W 008°42'0 0.0
2018-Jun-10 22:28N 41°11' W 008°42'0 0.0
2018-Jun-10 21:40N 41°11' W 008°42'0 0.0
2018-Jun-10 21:16N 41°11' W 008°42'0 0.0
2018-Jun-10 20:58N 41°11' W 008°42'0 0.0
2018-Jun-10 20:25N 41°11' W 008°42'0 0.0
2018-Jun-10 19:58N 41°11' W 008°42'0 0.0
2018-Jun-10 19:28N 41°11' W 008°42'0 0.0
2018-Jun-10 18:19N 41°11' W 008°42'0 0.0
2018-Jun-10 17:55N 41°11' W 008°42'0 0.0
2018-Jun-10 17:28N 41°11' W 008°42'0 0.0
2018-Jun-10 16:52N 41°11' W 008°42'0 0.0
2018-Jun-10 16:25N 41°11' W 008°42'0 0.0
2018-Jun-10 15:52N 41°11' W 008°42'0 0.0
2018-Jun-10 15:28N 41°11' W 008°42'0 0.0
2018-Jun-10 14:55N 41°11' W 008°42'0 0.0
2018-Jun-10 13:58N 41°11' W 008°42'0 0.0
2018-Jun-10 13:25N 41°11' W 008°42'0 0.0
2018-Jun-10 12:46N 41°11' W 008°42'0 0.0
2018-Jun-10 12:22N 41°11' W 008°42'0 0.0
2018-Jun-10 11:58N 41°11' W 008°42'0 0.0
2018-Jun-10 11:28N 41°11' W 008°42'0 0.0
2018-Jun-10 10:58N 41°11' W 008°42'0 0.0
2018-Jun-10 10:28N 41°11' W 008°42'0 0.0
2018-Jun-10 09:52N 41°11' W 008°42'0 0.0
2018-Jun-10 09:22N 41°11' W 008°42'0 0.0
2018-Jun-10 08:58N 41°11' W 008°42'0 0.0
2018-Jun-10 08:28N 41°11' W 008°42'0 0.0
2018-Jun-10 07:58N 41°11' W 008°42'0 0.0
2018-Jun-10 07:28N 41°11' W 008°42'0 0.0
2018-Jun-10 06:58N 41°11' W 008°42'0 0.0
2018-Jun-10 06:19N 41°11' W 008°42'0 0.0
2018-Jun-10 05:52N 41°11' W 008°42'0 0.0
2018-Jun-10 05:22N 41°11' W 008°42'0 0.0
2018-Jun-10 04:46N 41°11' W 008°42'0 0.0
2018-Jun-10 03:40N 41°11' W 008°42'0 0.0
2018-Jun-10 03:22N 41°11' W 008°42'0 0.0
2018-Jun-10 02:10N 41°11' W 008°42'0 0.0
2018-Jun-10 01:52N 41°11' W 008°42'0 0.0
2018-Jun-10 01:28N 41°11' W 008°42'0 0.0
2018-Jun-10 00:58N 41°11' W 008°42'0 0.0
2018-Jun-10 00:16N 41°11' W 008°42'0 0.0
2018-Jun-09 23:58N 41°11' W 008°42'0 0.0
2018-Jun-09 23:25N 41°11' W 008°42'0 0.0
2018-Jun-09 22:58N 41°11' W 008°42'0 0.0
2018-Jun-09 22:25N 41°11' W 008°42'0 0.0
2018-Jun-09 21:40N 41°11' W 008°42'0 0.0
2018-Jun-09 21:25N 41°11' W 008°42'0 0.0
2018-Jun-09 20:46N 41°11' W 008°42'0 0.0
2018-Jun-09 20:22N 41°11' W 008°42'0 0.0
2018-Jun-09 19:46N 41°11' W 008°42'0 0.0
2018-Jun-09 19:28N 41°11' W 008°42'0 0.0
2018-Jun-09 18:58N 41°11' W 008°42'0 0.0
2018-Jun-09 17:28N 41°11' W 008°42'2 3.2
2018-Jun-09 16:56N 41°09' W 008°42'  
2018-Jun-06 13:45N 39°13' W 009°24'2 7.2
2018-Jun-06 13:30N 39°11' W 009°25'4 7.2
2018-Jun-06 12:59N 39°08' W 009°26'4 7.0
2018-Jun-06 12:27N 39°04' W 009°28'3 6.9
2018-Jun-06 12:00N 39°01' W 009°29'3 6.3
2018-Jun-06 11:30N 38°58' W 009°29'3 6.8
2018-Jun-06 11:00N 38°55' W 009°30'3 6.7
2018-Jun-06 10:30N 38°51' W 009°31'4 6.9
2018-Jun-06 09:59N 38°48' W 009°31'3 6.8
2018-Jun-06 09:30N 38°44' W 009°31'4 5.5
2018-Jun-06 08:48N 38°41' W 009°28'2 6.0
2018-Jun-06 08:30N 38°41' W 009°26'1 1.4
2018-Jun-06 07:56N 38°42' W 009°25'0 0.5
2018-Jun-06 07:28N 38°41' W 009°25'0 0.0
2018-Jun-06 06:55N 38°41' W 009°25'0 0.0
2018-Jun-06 06:25N 38°41' W 009°25'0 0.0
2018-Jun-06 05:58N 38°41' W 009°25'0 0.0
2018-Jun-06 05:25N 38°41' W 009°25'0 0.0
2018-Jun-06 04:58N 38°41' W 009°25'0 0.0
2018-Jun-06 04:28N 38°41' W 009°25'0 0.0
2018-Jun-06 04:00N 38°41' W 009°25'0 0.0
2018-Jun-06 03:30N 38°41' W 009°25'0 0.0
2018-Jun-06 03:00N 38°41' W 009°25'0 0.0
2018-Jun-06 02:30N 38°41' W 009°25'0 0.0
2018-Jun-06 02:00N 38°41' W 009°25'0 0.0
2018-Jun-06 01:30N 38°41' W 009°25'0 0.0
2018-Jun-06 01:00N 38°41' W 009°25'0 0.0
2018-Jun-06 00:27N 38°41' W 009°25'0 0.0
2018-Jun-06 00:00N 38°41' W 009°25'0 0.0
2018-Jun-05 23:30N 38°41' W 009°25'0 0.0
2018-Jun-05 23:00N 38°41' W 009°25'0 0.0
2018-Jun-05 22:30N 38°41' W 009°25'0 0.0
2018-Jun-05 22:00N 38°41' W 009°25'0 0.0
2018-Jun-05 21:27N 38°41' W 009°25'0 0.0
2018-Jun-05 21:00N 38°41' W 009°25'0 0.0
2018-Jun-05 20:30N 38°41' W 009°25'0 0.0
2018-Jun-05 20:00N 38°41' W 009°25'0 0.0
2018-Jun-05 19:30N 38°41' W 009°25'0 0.0
2018-Jun-05 19:00N 38°41' W 009°25'0 0.0
2018-Jun-05 18:30N 38°41' W 009°25'0 0.0
2018-Jun-05 17:57N 38°41' W 009°25'0 0.0
2018-Jun-05 17:30N 38°41' W 009°25'0 0.0
2018-Jun-05 17:00N 38°41' W 009°25'0 0.3
2018-Jun-05 16:16N 38°42' W 009°25'1 4.7
2018-Jun-05 16:00N 38°41' W 009°24'4 7.4
2018-Jun-05 15:30N 38°37' W 009°22'4 7.0
2018-Jun-05 15:00N 38°34' W 009°20'4 6.9
2018-Jun-05 14:29N 38°31' W 009°18'4 7.1
2018-Jun-05 13:59N 38°28' W 009°16'3 6.9
2018-Jun-05 13:30N 38°25' W 009°14'3 6.8
2018-Jun-05 13:00N 38°22' W 009°12'3 6.8
2018-Jun-05 12:30N 38°18' W 009°11'4 7.1
2018-Jun-05 12:00N 38°15' W 009°09'4 7.3
2018-Jun-05 11:29N 38°12' W 009°07'3 6.9
2018-Jun-05 11:00N 38°09' W 009°05'3 6.4
2018-Jun-05 10:30N 38°06' W 009°03'3 5.9
2018-Jun-05 10:00N 38°04' W 009°01'3 5.8
2018-Jun-05 09:30N 38°01' W 008°58'3 5.9
2018-Jun-05 09:00N 37°59' W 008°56'3 5.8
2018-Jun-05 08:29N 37°57' W 008°54'2 3.3
2018-Jun-05 07:59N 37°57' W 008°52'0 0.0
2018-Jun-05 07:29N 37°57' W 008°52'0 0.0
2018-Jun-05 06:59N 37°57' W 008°52'0 0.0
2018-Jun-05 06:29N 37°57' W 008°52'0 0.0
2018-Jun-05 05:59N 37°57' W 008°52'0 0.0
2018-Jun-05 05:29N 37°57' W 008°52'0 0.0
2018-Jun-05 04:59N 37°57' W 008°52'0 0.0
2018-Jun-05 04:29N 37°57' W 008°52'0 0.0
2018-Jun-05 03:59N 37°57' W 008°52'0 0.0
2018-Jun-05 03:26N 37°57' W 008°52'0 0.0
2018-Jun-05 02:59N 37°57' W 008°52'0 0.0
2018-Jun-05 02:29N 37°57' W 008°52'0 0.0
2018-Jun-05 01:59N 37°57' W 008°52'0 0.0
2018-Jun-05 01:29N 37°57' W 008°52'0 0.0
2018-Jun-05 00:59N 37°57' W 008°52'0 0.0
2018-Jun-05 00:29N 37°57' W 008°52'0 0.0
2018-Jun-04 23:59N 37°57' W 008°52'0 0.0
2018-Jun-04 23:29N 37°57' W 008°52'0 0.0
2018-Jun-04 22:59N 37°57' W 008°52'0 0.0
2018-Jun-04 22:29N 37°57' W 008°52'0 0.0
2018-Jun-04 21:59N 37°57' W 008°52'0 0.0
2018-Jun-04 21:29N 37°57' W 008°52'0 0.0
2018-Jun-04 20:59N 37°57' W 008°52'0 0.0
2018-Jun-04 20:29N 37°57' W 008°52'0 0.0
2018-Jun-04 19:59N 37°57' W 008°52'0 0.0
2018-Jun-04 19:29N 37°57' W 008°52'0 0.0
2018-Jun-04 18:59N 37°57' W 008°52'0 0.0
2018-Jun-04 18:29N 37°57' W 008°52'0 0.0
2018-Jun-04 17:59N 37°57' W 008°52'2 3.8
2018-Jun-04 17:30N 37°55' W 008°52'4 7.6
2018-Jun-04 17:01N 37°51' W 008°52'3 6.7
2018-Jun-04 16:30N 37°48' W 008°53'4 6.6
2018-Jun-04 15:59N 37°45' W 008°53'3 6.8
2018-Jun-04 15:30N 37°41' W 008°54'41 4.9
2018-Jun-04 07:18N 37°01' W 008°46'2 7.1
2018-Jun-04 06:57N 37°02' W 008°43'3 6.7
2018-Jun-04 06:27N 37°03' W 008°39'3 7.1
2018-Jun-04 06:00N 37°05' W 008°35'3 6.4
2018-Jun-04 05:30N 37°06' W 008°32'1 1.3
2018-Jun-04 04:56N 37°07' W 008°32'0 0.0
2018-Jun-04 04:23N 37°07' W 008°32'0 0.0
2018-Jun-04 03:59N 37°07' W 008°32'0 0.0
2018-Jun-04 03:23N 37°07' W 008°32'0 0.0
2018-Jun-04 02:35N 37°07' W 008°32'0 0.0
2018-Jun-04 02:29N 37°07' W 008°32'0 0.0
2018-Jun-04 01:59N 37°07' W 008°32'0 0.0
2018-Jun-04 01:23N 37°07' W 008°32'0 0.0
2018-Jun-04 00:53N 37°07' W 008°32'0 0.0
2018-Jun-04 00:26N 37°07' W 008°32'0 0.0
2018-Jun-03 23:59N 37°07' W 008°32'0 0.0
2018-Jun-03 23:23N 37°07' W 008°32'0 0.0
2018-Jun-03 22:59N 37°07' W 008°32'0 0.0
2018-Jun-03 22:29N 37°07' W 008°32'0 0.0
2018-Jun-03 21:53N 37°07' W 008°32'0 0.0
2018-Jun-03 21:23N 37°07' W 008°32'0 0.0
2018-Jun-03 20:59N 37°07' W 008°32'0 0.0
2018-Jun-03 20:17N 37°07' W 008°32'0 0.0
2018-Jun-03 19:47N 37°07' W 008°32'0 0.0
2018-Jun-03 18:59N 37°07' W 008°32'0 0.0
2018-Jun-03 18:29N 37°07' W 008°32'0 0.0
2018-Jun-03 17:59N 37°07' W 008°32'0 0.0
2018-Jun-03 17:29N 37°07' W 008°32'0 0.0
2018-Jun-03 16:59N 37°07' W 008°32'0 0.0
2018-Jun-03 16:18N 37°07' W 008°32'0 0.0
2018-Jun-03 16:00N 37°07' W 008°32'0 0.0
2018-Jun-03 15:30N 37°07' W 008°32'0 0.0
2018-Jun-03 15:00N 37°07' W 008°32'0 0.0
2018-Jun-03 14:30N 37°07' W 008°32'0 0.0
2018-Jun-03 13:54N 37°07' W 008°32'0 0.0
2018-Jun-03 13:24N 37°07' W 008°32'0 0.0
2018-Jun-03 12:54N 37°07' W 008°32'0 0.0
2018-Jun-03 12:30N 37°07' W 008°32'0 0.0
2018-Jun-03 11:54N 37°07' W 008°32'0 0.0
2018-Jun-03 11:12N 37°07' W 008°32'0 0.0
2018-Jun-03 11:00N 37°07' W 008°32'0 0.0
2018-Jun-03 10:24N 37°07' W 008°32'0 0.0
2018-Jun-03 10:00N 37°07' W 008°32'0 0.0
2018-Jun-03 09:30N 37°07' W 008°32'0 0.0
2018-Jun-03 09:00N 37°07' W 008°32'0 0.0
2018-Jun-03 07:36N 37°07' W 008°32'0 0.0
2018-Jun-03 07:30N 37°07' W 008°32'0 0.0
2018-Jun-03 06:42N 37°07' W 008°32'0 0.0
2018-Jun-03 06:18N 37°07' W 008°32'0 0.0
2018-Jun-03 05:54N 37°07' W 008°32'0 0.0
2018-Jun-03 05:12N 37°07' W 008°32'0 0.0
2018-Jun-03 05:00N 37°07' W 008°32'0 0.0
2018-Jun-03 04:30N 37°07' W 008°32'0 0.0
2018-Jun-03 02:53N 37°07' W 008°32'0 0.0
2018-Jun-03 02:29N 37°07' W 008°32'0 0.0
2018-Jun-03 01:59N 37°07' W 008°32'0 0.0
2018-Jun-03 01:29N 37°07' W 008°32'0 0.0
2018-Jun-03 00:53N 37°07' W 008°32'0 0.0
2018-Jun-03 00:29N 37°07' W 008°32'0 0.0
2018-Jun-02 23:53N 37°07' W 008°32'0 0.0
2018-Jun-02 23:29N 37°07' W 008°32'0 0.0
2018-Jun-02 22:35N 37°07' W 008°32'0 0.0
2018-Jun-02 22:23N 37°07' W 008°32'0 0.0
2018-Jun-02 21:47N 37°07' W 008°32'0 0.0
2018-Jun-02 21:23N 37°07' W 008°32'0 0.0
2018-Jun-02 20:59N 37°07' W 008°32'0 0.0
2018-Jun-02 20:29N 37°07' W 008°32'0 0.0
2018-Jun-02 19:47N 37°07' W 008°32'0 0.0
2018-Jun-02 19:29N 37°07' W 008°32'0 0.0
2018-Jun-02 18:53N 37°07' W 008°32'0 0.0
2018-Jun-02 18:23N 37°07' W 008°32'0 0.0
2018-Jun-02 17:53N 37°07' W 008°32'0 0.0
2018-Jun-02 17:29N 37°07' W 008°32'0 0.0
2018-Jun-02 16:59N 37°07' W 008°32'0 0.0
2018-Jun-02 16:17N 37°07' W 008°32'0 0.0
2018-Jun-02 15:59N 37°07' W 008°32'0 0.0
2018-Jun-02 15:17N 37°07' W 008°32'0 0.0
2018-Jun-02 14:59N 37°07' W 008°32'0 0.0
2018-Jun-02 14:29N 37°07' W 008°32'0 0.0
2018-Jun-02 13:59N 37°07' W 008°32'0 0.0
2018-Jun-02 13:29N 37°07' W 008°32'0 0.0
2018-Jun-02 12:59N 37°07' W 008°32'0 0.0
2018-Jun-02 12:29N 37°07' W 008°32'0 0.0
2018-Jun-02 11:59N 37°07' W 008°32'0 0.0
2018-Jun-02 11:29N 37°07' W 008°32'0 0.0
2018-Jun-02 10:59N 37°07' W 008°32'0 0.0
2018-Jun-02 10:29N 37°07' W 008°32'0 0.0
2018-Jun-02 09:53N 37°07' W 008°32'0 0.0
2018-Jun-02 09:29N 37°07' W 008°32'0 0.0
2018-Jun-02 08:53N 37°07' W 008°32'0 0.0
2018-Jun-02 08:29N 37°07' W 008°32'0 0.0
2018-Jun-02 07:53N 37°07' W 008°32'0 0.0
2018-Jun-02 07:29N 37°07' W 008°32'0 0.0
2018-Jun-02 06:59N 37°07' W 008°32'0 0.0
2018-Jun-02 06:29N 37°07' W 008°32'0 0.0
2018-Jun-02 05:59N 37°07' W 008°32'0 0.0
2018-Jun-02 05:29N 37°07' W 008°32'0 0.0
2018-Jun-02 04:53N 37°07' W 008°32'0 0.0
2018-Jun-02 04:29N 37°07' W 008°32'0 0.0
2018-Jun-02 03:59N 37°07' W 008°32'0 0.0
2018-Jun-02 03:29N 37°07' W 008°32'0 0.0
2018-Jun-02 02:59N 37°07' W 008°32'0 0.0
2018-Jun-02 02:29N 37°07' W 008°32'0 0.0
2018-Jun-02 01:59N 37°07' W 008°32'0 0.0
2018-Jun-02 01:29N 37°07' W 008°32'0 0.0
2018-Jun-02 00:59N 37°07' W 008°32'0 0.0
2018-Jun-02 00:29N 37°07' W 008°32'0 0.0
2018-Jun-01 23:59N 37°07' W 008°32'0 0.0
2018-Jun-01 23:29N 37°07' W 008°32'0 0.0
2018-Jun-01 22:47N 37°07' W 008°32'0 0.0
2018-Jun-01 22:29N 37°07' W 008°32'0 0.0
2018-Jun-01 21:59N 37°07' W 008°32'0 0.0
2018-Jun-01 21:29N 37°07' W 008°32'0 0.0
2018-Jun-01 20:59N 37°07' W 008°32'0 0.0
2018-Jun-01 20:29N 37°07' W 008°32'0 0.0
2018-Jun-01 19:59N 37°07' W 008°32'0 0.0
2018-Jun-01 19:29N 37°07' W 008°32'0 0.0
2018-Jun-01 18:59N 37°07' W 008°32'0 0.0
2018-Jun-01 18:29N 37°07' W 008°32'0 0.0
2018-Jun-01 17:53N 37°07' W 008°32'0 0.0
2018-Jun-01 17:29N 37°07' W 008°32'0 0.0
2018-Jun-01 16:59N 37°07' W 008°32'0 0.0
2018-Jun-01 16:29N 37°07' W 008°32'0 0.0
2018-Jun-01 15:59N 37°07' W 008°32'0 0.0
2018-Jun-01 15:29N 37°07' W 008°32'0 0.0
2018-Jun-01 14:53N 37°07' W 008°32'0 0.0
2018-Jun-01 14:17N 37°07' W 008°32'0 0.0
2018-Jun-01 13:59N 37°07' W 008°32'0 0.0
2018-Jun-01 13:29N 37°07' W 008°32'0 0.0
2018-Jun-01 12:53N 37°07' W 008°32'0 0.0
2018-Jun-01 12:29N 37°07' W 008°32'0 0.0
2018-Jun-01 11:59N 37°07' W 008°32'0 0.0
2018-Jun-01 11:17N 37°07' W 008°32'0 0.0
2018-Jun-01 10:59N 37°07' W 008°32'0 0.0
2018-Jun-01 10:29N 37°07' W 008°32'0 0.0
2018-Jun-01 09:59N 37°07' W 008°32'0 0.0
2018-Jun-01 09:29N 37°07' W 008°32'0 0.0
2018-Jun-01 08:59N 37°07' W 008°32'  
Track history (hours):
 
Tides and Currents Weather Stations Pressure Air Temp Water Temp Dewpoint Dewpoint Depression Visibility Wind Speed Wind Dir Waves Ship Positions

New Life

Last reported at 2018-Jun-11 08:32 UTC. Time now 2018-Aug-21 01:55 UTC.
Position N 41°12' W 008°45'.
Warning: this ship's position is months out of date.

Length 14 m.

Type: Sailing vessel. MMSI: 211560270.

Date/timePositionNaut miles runAvg speedWind from/ knotsBaromVisibWave heightAir tempDewpointWater temp
2018-Jun-11 08:32N 41°12' W 008°45'0 6.3
2018-Jun-11 08:28N 41°11' W 008°45'2 4.2
2018-Jun-11 08:00N 41°11' W 008°42'0 0.9
2018-Jun-11 07:28N 41°11' W 008°42'0 0.0
2018-Jun-11 06:22N 41°11' W 008°42'0 0.0
2018-Jun-11 05:58N 41°11' W 008°42'0 0.0
2018-Jun-11 05:28N 41°11' W 008°42'0 0.0
2018-Jun-11 04:55N 41°11' W 008°42'0 0.0
2018-Jun-11 04:28N 41°11' W 008°42'0 0.0
2018-Jun-11 03:58N 41°11' W 008°42'0 0.0
2018-Jun-11 03:22N 41°11' W 008°42'0 0.0
2018-Jun-11 02:52N 41°11' W 008°42'0 0.0
2018-Jun-11 02:25N 41°11' W 008°42'0 0.0
2018-Jun-11 01:58N 41°11' W 008°42'0 0.0
2018-Jun-11 01:28N 41°11' W 008°42'0 0.0
2018-Jun-11 00:52N 41°11' W 008°42'0 0.0
2018-Jun-11 00:04N 41°11' W 008°42'0 0.0
2018-Jun-10 23:52N 41°11' W 008°42'0 0.0
2018-Jun-10 23:28N 41°11' W 008°42'0 0.0
2018-Jun-10 22:58N 41°11' W 008°42'0 0.0
2018-Jun-10 22:28N 41°11' W 008°42'0 0.0
2018-Jun-10 21:40N 41°11' W 008°42'0 0.0
2018-Jun-10 21:16N 41°11' W 008°42'0 0.0
2018-Jun-10 20:58N 41°11' W 008°42'0 0.0
2018-Jun-10 20:25N 41°11' W 008°42'0 0.0
2018-Jun-10 19:58N 41°11' W 008°42'0 0.0
2018-Jun-10 19:28N 41°11' W 008°42'0 0.0
2018-Jun-10 18:19N 41°11' W 008°42'0 0.0
2018-Jun-10 17:55N 41°11' W 008°42'0 0.0
2018-Jun-10 17:28N 41°11' W 008°42'0 0.0
2018-Jun-10 16:52N 41°11' W 008°42'0 0.0
2018-Jun-10 16:25N 41°11' W 008°42'0 0.0
2018-Jun-10 15:52N 41°11' W 008°42'0 0.0
2018-Jun-10 15:28N 41°11' W 008°42'0 0.0
2018-Jun-10 14:55N 41°11' W 008°42'0 0.0
2018-Jun-10 13:58N 41°11' W 008°42'0 0.0
2018-Jun-10 13:25N 41°11' W 008°42'0 0.0
2018-Jun-10 12:46N 41°11' W 008°42'0 0.0
2018-Jun-10 12:22N 41°11' W 008°42'0 0.0
2018-Jun-10 11:58N 41°11' W 008°42'0 0.0
2018-Jun-10 11:28N 41°11' W 008°42'0 0.0
2018-Jun-10 10:58N 41°11' W 008°42'0 0.0
2018-Jun-10 10:28N 41°11' W 008°42'0 0.0
2018-Jun-10 09:52N 41°11' W 008°42'0 0.0
2018-Jun-10 09:22N 41°11' W 008°42'0 0.0
2018-Jun-10 08:58N 41°11' W 008°42'0 0.0
2018-Jun-10 08:28N 41°11' W 008°42'0 0.0
2018-Jun-10 07:58N 41°11' W 008°42'0 0.0
2018-Jun-10 07:28N 41°11' W 008°42'0 0.0
2018-Jun-10 06:58N 41°11' W 008°42'0 0.0
2018-Jun-10 06:19N 41°11' W 008°42'0 0.0
2018-Jun-10 05:52N 41°11' W 008°42'0 0.0
2018-Jun-10 05:22N 41°11' W 008°42'0 0.0
2018-Jun-10 04:46N 41°11' W 008°42'0 0.0
2018-Jun-10 03:40N 41°11' W 008°42'0 0.0
2018-Jun-10 03:22N 41°11' W 008°42'0 0.0
2018-Jun-10 02:10N 41°11' W 008°42'0 0.0
2018-Jun-10 01:52N 41°11' W 008°42'0 0.0
2018-Jun-10 01:28N 41°11' W 008°42'0 0.0
2018-Jun-10 00:58N 41°11' W 008°42'0 0.0
2018-Jun-10 00:16N 41°11' W 008°42'0 0.0
2018-Jun-09 23:58N 41°11' W 008°42'0 0.0
2018-Jun-09 23:25N 41°11' W 008°42'0 0.0
2018-Jun-09 22:58N 41°11' W 008°42'0 0.0
2018-Jun-09 22:25N 41°11' W 008°42'0 0.0
2018-Jun-09 21:40N 41°11' W 008°42'0 0.0
2018-Jun-09 21:25N 41°11' W 008°42'0 0.0
2018-Jun-09 20:46N 41°11' W 008°42'0 0.0
2018-Jun-09 20:22N 41°11' W 008°42'0 0.0
2018-Jun-09 19:46N 41°11' W 008°42'0 0.0
2018-Jun-09 19:28N 41°11' W 008°42'0 0.0
2018-Jun-09 18:58N 41°11' W 008°42'0 0.0
2018-Jun-09 17:28N 41°11' W 008°42'2 3.2
2018-Jun-09 16:56N 41°09' W 008°42'  
2018-Jun-06 13:45N 39°13' W 009°24'2 7.2
2018-Jun-06 13:30N 39°11' W 009°25'4 7.2
2018-Jun-06 12:59N 39°08' W 009°26'4 7.0
2018-Jun-06 12:27N 39°04' W 009°28'3 6.9
2018-Jun-06 12:00N 39°01' W 009°29'3 6.3
2018-Jun-06 11:30N 38°58' W 009°29'3 6.8
2018-Jun-06 11:00N 38°55' W 009°30'3 6.7
2018-Jun-06 10:30N 38°51' W 009°31'4 6.9
2018-Jun-06 09:59N 38°48' W 009°31'3 6.8
2018-Jun-06 09:30N 38°44' W 009°31'4 5.5
2018-Jun-06 08:48N 38°41' W 009°28'2 6.0
2018-Jun-06 08:30N 38°41' W 009°26'1 1.4
2018-Jun-06 07:56N 38°42' W 009°25'0 0.5
2018-Jun-06 07:28N 38°41' W 009°25'0 0.0
2018-Jun-06 06:55N 38°41' W 009°25'0 0.0
2018-Jun-06 06:25N 38°41' W 009°25'0 0.0
2018-Jun-06 05:58N 38°41' W 009°25'0 0.0
2018-Jun-06 05:25N 38°41' W 009°25'0 0.0
2018-Jun-06 04:58N 38°41' W 009°25'0 0.0
2018-Jun-06 04:28N 38°41' W 009°25'0 0.0
2018-Jun-06 04:00N 38°41' W 009°25'0 0.0
2018-Jun-06 03:30N 38°41' W 009°25'0 0.0
2018-Jun-06 03:00N 38°41' W 009°25'0 0.0
2018-Jun-06 02:30N 38°41' W 009°25'0 0.0
2018-Jun-06 02:00N 38°41' W 009°25'0 0.0
2018-Jun-06 01:30N 38°41' W 009°25'0 0.0
2018-Jun-06 01:00N 38°41' W 009°25'0 0.0
2018-Jun-06 00:27N 38°41' W 009°25'0 0.0
2018-Jun-06 00:00N 38°41' W 009°25'0 0.0
2018-Jun-05 23:30N 38°41' W 009°25'0 0.0
2018-Jun-05 23:00N 38°41' W 009°25'0 0.0
2018-Jun-05 22:30N 38°41' W 009°25'0 0.0
2018-Jun-05 22:00N 38°41' W 009°25'0 0.0
2018-Jun-05 21:27N 38°41' W 009°25'0 0.0
2018-Jun-05 21:00N 38°41' W 009°25'0 0.0
2018-Jun-05 20:30N 38°41' W 009°25'0 0.0
2018-Jun-05 20:00N 38°41' W 009°25'0 0.0
2018-Jun-05 19:30N 38°41' W 009°25'0 0.0
2018-Jun-05 19:00N 38°41' W 009°25'0 0.0
2018-Jun-05 18:30N 38°41' W 009°25'0 0.0
2018-Jun-05 17:57N 38°41' W 009°25'0 0.0
2018-Jun-05 17:30N 38°41' W 009°25'0 0.0
2018-Jun-05 17:00N 38°41' W 009°25'0 0.3
2018-Jun-05 16:16N 38°42' W 009°25'1 4.7
2018-Jun-05 16:00N 38°41' W 009°24'4 7.4
2018-Jun-05 15:30N 38°37' W 009°22'4 7.0
2018-Jun-05 15:00N 38°34' W 009°20'4 6.9
2018-Jun-05 14:29N 38°31' W 009°18'4 7.1
2018-Jun-05 13:59N 38°28' W 009°16'3 6.9
2018-Jun-05 13:30N 38°25' W 009°14'3 6.8
2018-Jun-05 13:00N 38°22' W 009°12'3 6.8
2018-Jun-05 12:30N 38°18' W 009°11'4 7.1
2018-Jun-05 12:00N 38°15' W 009°09'4 7.3
2018-Jun-05 11:29N 38°12' W 009°07'3 6.9
2018-Jun-05 11:00N 38°09' W 009°05'3 6.4
2018-Jun-05 10:30N 38°06' W 009°03'3 5.9
2018-Jun-05 10:00N 38°04' W 009°01'3 5.8
2018-Jun-05 09:30N 38°01' W 008°58'3 5.9
2018-Jun-05 09:00N 37°59' W 008°56'3 5.8
2018-Jun-05 08:29N 37°57' W 008°54'2 3.3
2018-Jun-05 07:59N 37°57' W 008°52'0 0.0
2018-Jun-05 07:29N 37°57' W 008°52'0 0.0
2018-Jun-05 06:59N 37°57' W 008°52'0 0.0
2018-Jun-05 06:29N 37°57' W 008°52'0 0.0
2018-Jun-05 05:59N 37°57' W 008°52'0 0.0
2018-Jun-05 05:29N 37°57' W 008°52'0 0.0
2018-Jun-05 04:59N 37°57' W 008°52'0 0.0
2018-Jun-05 04:29N 37°57' W 008°52'0 0.0
2018-Jun-05 03:59N 37°57' W 008°52'0 0.0
2018-Jun-05 03:26N 37°57' W 008°52'0 0.0
2018-Jun-05 02:59N 37°57' W 008°52'0 0.0
2018-Jun-05 02:29N 37°57' W 008°52'0 0.0
2018-Jun-05 01:59N 37°57' W 008°52'0 0.0
2018-Jun-05 01:29N 37°57' W 008°52'0 0.0
2018-Jun-05 00:59N 37°57' W 008°52'0 0.0
2018-Jun-05 00:29N 37°57' W 008°52'0 0.0
2018-Jun-04 23:59N 37°57' W 008°52'0 0.0
2018-Jun-04 23:29N 37°57' W 008°52'0 0.0
2018-Jun-04 22:59N 37°57' W 008°52'0 0.0
2018-Jun-04 22:29N 37°57' W 008°52'0 0.0
2018-Jun-04 21:59N 37°57' W 008°52'0 0.0
2018-Jun-04 21:29N 37°57' W 008°52'0 0.0
2018-Jun-04 20:59N 37°57' W 008°52'0 0.0
2018-Jun-04 20:29N 37°57' W 008°52'0 0.0
2018-Jun-04 19:59N 37°57' W 008°52'0 0.0
2018-Jun-04 19:29N 37°57' W 008°52'0 0.0
2018-Jun-04 18:59N 37°57' W 008°52'0 0.0
2018-Jun-04 18:29N 37°57' W 008°52'0 0.0
2018-Jun-04 17:59N 37°57' W 008°52'2 3.8
2018-Jun-04 17:30N 37°55' W 008°52'4 7.6
2018-Jun-04 17:01N 37°51' W 008°52'3 6.7
2018-Jun-04 16:30N 37°48' W 008°53'4 6.6
2018-Jun-04 15:59N 37°45' W 008°53'3 6.8
2018-Jun-04 15:30N 37°41' W 008°54'41 4.9
2018-Jun-04 07:18N 37°01' W 008°46'2 7.1
2018-Jun-04 06:57N 37°02' W 008°43'3 6.7
2018-Jun-04 06:27N 37°03' W 008°39'3 7.1
2018-Jun-04 06:00N 37°05' W 008°35'3 6.4
2018-Jun-04 05:30N 37°06' W 008°32'1 1.3
2018-Jun-04 04:56N 37°07' W 008°32'0 0.0
2018-Jun-04 04:23N 37°07' W 008°32'0 0.0
2018-Jun-04 03:59N 37°07' W 008°32'0 0.0
2018-Jun-04 03:23N 37°07' W 008°32'0 0.0
2018-Jun-04 02:35N 37°07' W 008°32'0 0.0
2018-Jun-04 02:29N 37°07' W 008°32'0 0.0
2018-Jun-04 01:59N 37°07' W 008°32'0 0.0
2018-Jun-04 01:23N 37°07' W 008°32'0 0.0
2018-Jun-04 00:53N 37°07' W 008°32'0 0.0
2018-Jun-04 00:26N 37°07' W 008°32'0 0.0
2018-Jun-03 23:59N 37°07' W 008°32'0 0.0
2018-Jun-03 23:23N 37°07' W 008°32'0 0.0
2018-Jun-03 22:59N 37°07' W 008°32'0 0.0
2018-Jun-03 22:29N 37°07' W 008°32'0 0.0
2018-Jun-03 21:53N 37°07' W 008°32'0 0.0
2018-Jun-03 21:23N 37°07' W 008°32'0 0.0
2018-Jun-03 20:59N 37°07' W 008°32'0 0.0
2018-Jun-03 20:17N 37°07' W 008°32'0 0.0
2018-Jun-03 19:47N 37°07' W 008°32'0 0.0
2018-Jun-03 18:59N 37°07' W 008°32'0 0.0
2018-Jun-03 18:29N 37°07' W 008°32'0 0.0
2018-Jun-03 17:59N 37°07' W 008°32'0 0.0
2018-Jun-03 17:29N 37°07' W 008°32'0 0.0
2018-Jun-03 16:59N 37°07' W 008°32'0 0.0
2018-Jun-03 16:18N 37°07' W 008°32'0 0.0
2018-Jun-03 16:00N 37°07' W 008°32'0 0.0
2018-Jun-03 15:30N 37°07' W 008°32'0 0.0
2018-Jun-03 15:00N 37°07' W 008°32'0 0.0
2018-Jun-03 14:30N 37°07' W 008°32'0 0.0
2018-Jun-03 13:54N 37°07' W 008°32'0 0.0
2018-Jun-03 13:24N 37°07' W 008°32'0 0.0
2018-Jun-03 12:54N 37°07' W 008°32'0 0.0
2018-Jun-03 12:30N 37°07' W 008°32'0 0.0
2018-Jun-03 11:54N 37°07' W 008°32'0 0.0
2018-Jun-03 11:12N 37°07' W 008°32'0 0.0
2018-Jun-03 11:00N 37°07' W 008°32'0 0.0
2018-Jun-03 10:24N 37°07' W 008°32'0 0.0
2018-Jun-03 10:00N 37°07' W 008°32'0 0.0
2018-Jun-03 09:30N 37°07' W 008°32'0 0.0
2018-Jun-03 09:00N 37°07' W 008°32'0 0.0
2018-Jun-03 07:36N 37°07' W 008°32'0 0.0
2018-Jun-03 07:30N 37°07' W 008°32'0 0.0
2018-Jun-03 06:42N 37°07' W 008°32'0 0.0
2018-Jun-03 06:18N 37°07' W 008°32'0 0.0
2018-Jun-03 05:54N 37°07' W 008°32'0 0.0
2018-Jun-03 05:12N 37°07' W 008°32'0 0.0
2018-Jun-03 05:00N 37°07' W 008°32'0 0.0
2018-Jun-03 04:30N 37°07' W 008°32'0 0.0
2018-Jun-03 02:53N 37°07' W 008°32'0 0.0
2018-Jun-03 02:29N 37°07' W 008°32'0 0.0
2018-Jun-03 01:59N 37°07' W 008°32'0 0.0
2018-Jun-03 01:29N 37°07' W 008°32'0 0.0
2018-Jun-03 00:53N 37°07' W 008°32'0 0.0
2018-Jun-03 00:29N 37°07' W 008°32'0 0.0
2018-Jun-02 23:53N 37°07' W 008°32'0 0.0
2018-Jun-02 23:29N 37°07' W 008°32'0 0.0
2018-Jun-02 22:35N 37°07' W 008°32'0 0.0
2018-Jun-02 22:23N 37°07' W 008°32'0 0.0
2018-Jun-02 21:47N 37°07' W 008°32'0 0.0
2018-Jun-02 21:23N 37°07' W 008°32'0 0.0
2018-Jun-02 20:59N 37°07' W 008°32'0 0.0
2018-Jun-02 20:29N 37°07' W 008°32'0 0.0
2018-Jun-02 19:47N 37°07' W 008°32'0 0.0
2018-Jun-02 19:29N 37°07' W 008°32'0 0.0
2018-Jun-02 18:53N 37°07' W 008°32'0 0.0
2018-Jun-02 18:23N 37°07' W 008°32'0 0.0
2018-Jun-02 17:53N 37°07' W 008°32'0 0.0
2018-Jun-02 17:29N 37°07' W 008°32'0 0.0
2018-Jun-02 16:59N 37°07' W 008°32'0 0.0
2018-Jun-02 16:17N 37°07' W 008°32'0 0.0
2018-Jun-02 15:59N 37°07' W 008°32'0 0.0
2018-Jun-02 15:17N 37°07' W 008°32'0 0.0
2018-Jun-02 14:59N 37°07' W 008°32'0 0.0
2018-Jun-02 14:29N 37°07' W 008°32'0 0.0
2018-Jun-02 13:59N 37°07' W 008°32'0 0.0
2018-Jun-02 13:29N 37°07' W 008°32'0 0.0
2018-Jun-02 12:59N 37°07' W 008°32'0 0.0
2018-Jun-02 12:29N 37°07' W 008°32'0 0.0
2018-Jun-02 11:59N 37°07' W 008°32'0 0.0
2018-Jun-02 11:29N 37°07' W 008°32'0 0.0
2018-Jun-02 10:59N 37°07' W 008°32'0 0.0
2018-Jun-02 10:29N 37°07' W 008°32'0 0.0
2018-Jun-02 09:53N 37°07' W 008°32'0 0.0
2018-Jun-02 09:29N 37°07' W 008°32'0 0.0
2018-Jun-02 08:53N 37°07' W 008°32'0 0.0
2018-Jun-02 08:29N 37°07' W 008°32'0 0.0
2018-Jun-02 07:53N 37°07' W 008°32'0 0.0
2018-Jun-02 07:29N 37°07' W 008°32'0 0.0
2018-Jun-02 06:59N 37°07' W 008°32'0 0.0
2018-Jun-02 06:29N 37°07' W 008°32'0 0.0
2018-Jun-02 05:59N 37°07' W 008°32'0 0.0
2018-Jun-02 05:29N 37°07' W 008°32'0 0.0
2018-Jun-02 04:53N 37°07' W 008°32'0 0.0
2018-Jun-02 04:29N 37°07' W 008°32'0 0.0
2018-Jun-02 03:59N 37°07' W 008°32'0 0.0
2018-Jun-02 03:29N 37°07' W 008°32'0 0.0
2018-Jun-02 02:59N 37°07' W 008°32'0 0.0
2018-Jun-02 02:29N 37°07' W 008°32'0 0.0
2018-Jun-02 01:59N 37°07' W 008°32'0 0.0
2018-Jun-02 01:29N 37°07' W 008°32'0 0.0
2018-Jun-02 00:59N 37°07' W 008°32'0 0.0
2018-Jun-02 00:29N 37°07' W 008°32'0 0.0
2018-Jun-01 23:59N 37°07' W 008°32'0 0.0
2018-Jun-01 23:29N 37°07' W 008°32'0 0.0
2018-Jun-01 22:47N 37°07' W 008°32'0 0.0
2018-Jun-01 22:29N 37°07' W 008°32'0 0.0
2018-Jun-01 21:59N 37°07' W 008°32'0 0.0
2018-Jun-01 21:29N 37°07' W 008°32'0 0.0
2018-Jun-01 20:59N 37°07' W 008°32'0 0.0
2018-Jun-01 20:29N 37°07' W 008°32'0 0.0
2018-Jun-01 19:59N 37°07' W 008°32'0 0.0
2018-Jun-01 19:29N 37°07' W 008°32'0 0.0
2018-Jun-01 18:59N 37°07' W 008°32'0 0.0
2018-Jun-01 18:29N 37°07' W 008°32'0 0.0
2018-Jun-01 17:53N 37°07' W 008°32'0 0.0
2018-Jun-01 17:29N 37°07' W 008°32'0 0.0
2018-Jun-01 16:59N 37°07' W 008°32'0 0.0
2018-Jun-01 16:29N 37°07' W 008°32'0 0.0
2018-Jun-01 15:59N 37°07' W 008°32'0 0.0
2018-Jun-01 15:29N 37°07' W 008°32'0 0.0
2018-Jun-01 14:53N 37°07' W 008°32'0 0.0
2018-Jun-01 14:17N 37°07' W 008°32'0 0.0
2018-Jun-01 13:59N 37°07' W 008°32'0 0.0
2018-Jun-01 13:29N 37°07' W 008°32'0 0.0
2018-Jun-01 12:53N 37°07' W 008°32'0 0.0
2018-Jun-01 12:29N 37°07' W 008°32'0 0.0
2018-Jun-01 11:59N 37°07' W 008°32'0 0.0
2018-Jun-01 11:17N 37°07' W 008°32'0 0.0
2018-Jun-01 10:59N 37°07' W 008°32'0 0.0
2018-Jun-01 10:29N 37°07' W 008°32'0 0.0
2018-Jun-01 09:59N 37°07' W 008°32'0 0.0
2018-Jun-01 09:29N 37°07' W 008°32'0 0.0
2018-Jun-01 08:59N 37°07' W 008°32'  

Dump ship's entire track history